Time;durP1;ratioP1;P1;durP2;ratioP2;P2;SDS_P1;SDS_P2;PMS_P1;PMS_P2;Temp;Humidity;BMP_temperature;BMP_pressure;BME280_temperature;BME280_humidity;BME280_pressure;Samples;Min_cycle;Max_cycle;Signal;HPM_P1;HPM_P2
2022/11/19 05:58:41;;;;;;;;;;;;;;;;;;5743861;23;19922;-82
2022/11/19 06:01:07;;;;;;;;;;;;;;;;;;4975358;28;19918;-81
2022/11/19 06:03:32;;;;;;;;;;;;;;;;;;4977535;28;19914;-86
2022/11/19 06:05:58;;;;;;;;;;;;;;;;;;4977579;28;19914;-87
2022/11/19 06:08:23;;;;;;;;;;;;;;;;;;4977311;28;19921;-84
2022/11/19 06:10:48;;;;;;;;;;;;;;;;;;4977628;28;20006;-83
2022/11/19 06:13:14;;;;;;;;;;;;;;;;;;4977461;28;20361;-86
2022/11/19 06:15:39;;;;;;;;;;;;;;;;;;4977720;28;19914;-85
2022/11/19 06:18:04;;;;;;;;;;;;;;;;;;4977320;28;19914;-86
2022/11/19 06:20:30;;;;;;;;;;;;;;;;;;4977440;28;19914;-79
2022/11/19 06:22:55;;;;;;;;;;;;;;;;;;4977403;28;19914;-86
2022/11/19 06:25:20;;;;;;;;;;;;;;;;;;4977192;28;19921;-88
2022/11/19 06:27:46;;;;;;;;;;;;;;;;;;4977209;28;19918;-88
2022/11/19 06:30:11;;;;;;;;;;;;;;;;;;4977299;28;19968;-88
2022/11/19 06:32:37;;;;;;;;;;;;;;;;;;4959878;28;20270;-85
2022/11/19 06:35:02;;;;;;;;;;;;;;;;;;4976948;28;19969;-89
2022/11/19 06:37:27;;;;;;;;;;;;;;;;;;4977036;28;20452;-88
2022/11/19 06:39:54;;;;;;;;;;;;;;;;;;4976956;28;20281;-88
2022/11/19 06:42:37;;;;;;;;;;;;;;;;;;4977043;28;20321;-87
2022/11/19 06:45:04;;;;;;;;;;;;;;;;;;4976928;28;20364;-84
2022/11/19 06:47:30;;;;;;;;;;;;;;;;;;4977058;28;19920;-88
2022/11/19 06:49:55;;;;;;;;;;;;;;;;;;4976971;28;19914;-81
2022/11/19 06:52:20;;;;;;;;;;;;;;;;;;4976797;28;19924;-86
2022/11/19 06:54:46;;;;;;;;;;;;;;;;;;4976918;28;19973;-81
2022/11/19 06:57:11;;;;;;;;;;;;;;;;;;4959303;28;19914;-82
2022/11/19 06:59:37;;;;;;;;;;;;;;;;;;4959546;28;19918;-82
2022/11/19 07:02:03;;;;;;;;;;;;;;;;;;4977007;28;20352;-82
2022/11/19 07:04:28;;;;;;;;;;;;;;;;;;4976911;28;19950;-81
2022/11/19 07:06:53;;;;;;;;;;;;;;;;;;4976771;28;19914;-81
2022/11/19 07:09:19;;;;;;;;;;;;;;;;;;4976784;28;19957;-89
2022/11/19 07:11:44;;;;;;;;;;;;;;;;;;4976719;28;19961;-88
2022/11/19 11:52:45;;;;;;;;;;;;;;;;;;4973210;28;20001;-84
2022/11/19 11:55:22;;;;;;;;;;;;;;;;;;4975753;28;19924;-82
2022/11/19 11:57:54;;;;;;;;;;;;;;;;;;4976068;28;20353;-85
2022/11/19 12:00:28;;;;;;;;;;;;;;;;;;4993746;28;19913;-85
2022/11/19 12:03:00;;;;;;;;;;;;;;;;;;4995368;28;19914;-84
2022/11/19 12:05:28;;;;;;;;;;;;;;;;;;4996074;28;19948;-83
2022/11/19 12:08:05;;;;;;;;;;;;;;;;;;4996619;28;20444;-82
2022/11/19 12:10:30;;;;;;;;;;;;;;;;;;4995046;28;19968;-81
2022/11/19 12:13:02;;;;;;;;;;;;;;;;;;4995138;28;19918;-83
2022/11/19 12:15:30;;;;;;;;;;;;;;;;;;4995197;28;20226;-81
2022/11/19 12:17:59;;;;;;;;;;;;;;;;;;4995092;28;19913;-84
2022/11/19 12:20:27;;;;;;;;;;;;;;;;;;4995264;28;19913;-82
2022/11/19 12:22:55;;;;;;;;;;;;;;;;;;4998443;28;19921;-85
2022/11/19 12:25:21;;;;;;;;;;;;;;;;;;4994937;28;19972;-81
2022/11/19 12:28:02;;;;;;;;;;;;;;;;;;4994719;28;19913;-82
2022/11/19 12:30:30;;;;;;;;;;;;;;;;;;4994858;28;19913;-82
2022/11/19 12:33:03;;;;;;;;;;;;;;;;;;4995309;28;20332;-83
2022/11/19 12:35:37;;;;;;;;;;;;;;;;;;4977022;28;20288;-84
2022/11/19 12:38:12;;;;;;;;;;;;;;;;;;4994690;28;20323;-87
2022/11/19 12:40:49;;;;;;;;;;;;;;;;;;4995043;28;19921;-84
2022/11/19 12:43:14;;;;;;;;;;;;;;;;;;4995011;28;20045;-83
2022/11/19 12:45:58;;;;;;;;;;;;;;;;;;4994660;28;20397;-83
2022/11/19 12:48:24;;;;;;;;;;;;;;;;;;4994446;28;20349;-82
2022/11/19 12:51:08;;;;;;;;;;;;;;;;;;4994749;28;20399;-87
2022/11/19 12:53:48;;;;;;;;;;;;;;;;;;4993672;28;20257;-82
2022/11/19 12:56:13;;;;;;;;;;;;;;;;;;4993807;28;20361;-86
2022/11/19 12:58:57;;;;;;;;;;;;;;;;;;4994836;28;19932;-86
2022/11/19 13:01:25;;;;;;;;;;;;;;;;;;4998754;28;19914;-84
2022/11/19 13:04:10;;;;;;;;;;;;;;;;;;4994428;28;20357;-82
2022/11/19 13:07:11;;;;;;;;;;;;;;;;;;4977513;28;19913;-81
2022/11/19 13:09:49;;;;;;;;;;;;;;;;;;4882882;29;19987;-88
2022/11/19 13:12:23;;;;;;;;;;;;;;;;;;4985776;28;19920;-86
2022/11/19 13:14:54;;;;;;;;;;;;;;;;;;4999003;28;19914;-82
2022/11/19 13:17:40;;;;;;;;;;;;;;;;;;4982711;28;20024;-87
2022/11/19 13:20:11;;;;;;;;;;;;;;;;;;4999023;28;19922;-82
2022/11/19 13:22:39;;;;;;;;;;;;;;;;;;4998159;28;19918;-78
2022/11/19 13:25:14;;;;;;;;;;;;;;;;;;4998534;28;19972;-76
2022/11/19 13:27:39;;;;;;;;;;;;;;;;;;4998429;28;20008;-81
2022/11/19 13:30:05;;;;;;;;;;;;;;;;;;4980795;28;19986;-77
2022/11/19 13:32:50;;;;;;;;;;;;;;;;;;4997973;28;19925;-79
2022/11/19 13:35:20;;;;;;;;;;;;;;;;;;4981113;28;20365;-84
2022/11/19 13:37:49;;;;;;;;;;;;;;;;;;4998266;28;19922;-83
2022/11/19 13:40:29;;;;;;;;;;;;;;;;;;4998036;28;20303;-80
2022/11/19 13:45:39;;;;;;;;;;;;;;;;;;4998410;28;19925;-82
2022/11/19 13:48:25;;;;;;;;;;;;;;;;;;4997678;28;20284;-81
2022/11/19 13:50:53;;;;;;;;;;;;;;;;;;4997212;28;19924;-80
2022/11/19 13:53:28;;;;;;;;;;;;;;;;;;4997888;28;19918;-81
2022/11/19 13:55:55;;;;;;;;;;;;;;;;;;4997789;28;19913;-84
2022/11/19 13:58:20;;;;;;;;;;;;;;;;;;4997717;28;19925;-84
2022/11/19 14:01:04;;;;;;;;;;;;;;;;;;4997419;28;20332;-81
2022/11/19 14:03:49;;;;;;;;;;;;;;;;;;4997720;28;19935;-85
2022/11/19 14:06:24;;;;;;;;;;;;;;;;;;4979621;28;19914;-85
2022/11/19 14:09:09;;;;;;;;;;;;;;;;;;4997506;28;19914;-79
2022/11/19 14:11:53;;;;;;;;;;;;;;;;;;4948283;28;19951;-80
2022/11/19 14:28:42;;;;;;;;;;;;;;;;;;4997388;28;19960;-80
2022/11/19 14:31:08;;;;;;;;;;;;;;;;;;4997371;28;19914;-82
2022/11/19 14:33:40;;;;;;;;;;;;;;;;;;4979697;28;19914;-81
2022/11/19 14:36:10;;;;;;;;;;;;;;;;;;4996908;28;20016;-80
2022/11/19 14:38:36;;;;;;;;;;;;;;;;;;4996804;28;19937;-81
2022/11/19 14:41:13;;;;;;;;;;;;;;;;;;4996889;28;19914;-81
2022/11/19 14:44:07;;;;;;;;;;;;;;;;;;4996964;28;20008;-88
2022/11/19 14:46:33;;;;;;;;;;;;;;;;;;4997202;28;20434;-81
2022/11/19 14:49:00;;;;;;;;;;;;;;;;;;4996965;28;19914;-80
2022/11/19 14:51:31;;;;;;;;;;;;;;;;;;4996826;28;19953;-89
2022/11/19 14:54:14;;;;;;;;;;;;;;;;;;4997591;28;19918;-82
2022/11/19 14:56:41;;;;;;;;;;;;;;;;;;4997094;28;19917;-83
2022/11/19 14:59:09;;;;;;;;;;;;;;;;;;4996781;28;19914;-83
2022/11/19 15:01:47;;;;;;;;;;;;;;;;;;4996969;28;20370;-81
2022/11/19 15:04:12;;;;;;;;;;;;;;;;;;4979999;28;19914;-81
2022/11/19 15:06:38;;;;;;;;;;;;;;;;;;4997068;28;19961;-80
2022/11/19 15:09:04;;;;;;;;;;;;;;;;;;4996711;28;19910;-86
2022/11/19 15:11:48;;;;;;;;;;;;;;;;;;4978683;28;20362;-80
2022/11/19 15:32:39;;;;;;;;;;;;;;;;;;5049489;23;20411;-83
2022/11/19 15:35:10;;;;;;;;;;;;;;;;;;5009839;28;19914;-81
2022/11/19 15:37:48;;;;;;;;;;;;;;;;;;4995843;28;20016;-82
2022/11/19 15:40:29;;;;;;;;;;;;;;;;;;4977546;28;20001;-80
2022/11/19 15:43:22;;;;;;;5.00;4.03;;;;;;;;;;4967620;28;20016;-80
2022/11/19 15:45:54;;;;;;;1.67;1.55;;;;;;;;;;4975752;28;20037;-80
2022/11/19 15:48:32;;;;;;;1.45;1.35;;;;;;;;;;4975350;28;20027;-80
2022/11/19 15:50:59;;;;;;;1.83;1.38;;;;;;;;;;4975536;28;20098;-80
2022/11/19 15:53:26;;;;;;;1.40;1.30;;;;;;;;;;4975189;28;20035;-79
2022/11/19 15:56:05;;;;;;;2.78;1.00;;;;;;;;;;4975439;28;20026;-79
2022/11/19 15:58:36;;;;;;;1.67;1.40;;;;;;;;;;4975381;28;20034;-79
2022/11/19 16:01:02;;;;;;;4.00;3.40;;;;;;;;;;4974066;28;20037;-80
2022/11/19 16:03:30;;;;;;;3.83;3.00;;;;;;;;;;4975108;28;20106;-80
2022/11/19 16:06:09;;;;;;;46.38;30.40;;;;;;;;;;4981451;28;20369;-79
2022/11/19 16:08:35;;;;;;;23.75;16.67;;;;;;;;;;4994608;28;20109;-78
2022/11/19 16:19:19;;;;;;;;;;;;;;;;;;4995159;28;19920;-79
2022/11/19 16:21:46;;;;;;;;;;;;;;;;;;4994719;28;20284;-81
2022/11/19 16:27:02;;;;;;;4.63;3.95;;;;;;;;;;4994584;28;20373;-79
2022/11/19 16:29:28;;;;;;;;;;;;;;;;;;4987437;28;20146;-79
2022/11/19 16:31:58;;;;;;;;;;;;;;;;;;4975104;28;19918;-81
2022/11/19 16:34:24;;;;;;;;;;;;;;;;;;4975579;28;19914;-79
2022/11/19 16:36:50;;;;;;;;;;;;;;;;;;4975261;28;20365;-79
2022/11/19 16:39:26;;;;;;;;;;;;;;;;;;4975500;28;19918;-79
2022/11/19 16:44:37;;;;;;;;;;;;;;;;;;4974911;28;19921;-79
2022/11/19 16:47:04;;;;;;;;;;;;;;;;;;4974116;28;19914;-80
2022/11/19 16:49:41;;;;;;;;;;;;;;;;;;4974698;28;19914;-80
2022/11/19 16:52:06;;;;;;;;;;;;;;;;;;4975273;28;19914;-79
2022/11/19 16:54:48;;;;;;;;;;;;;;;;;;4975364;28;20296;-79
2022/11/19 16:57:16;;;;;;;;;;;;;;;;;;4975399;28;20265;-80
2022/11/19 16:59:44;;;;;;;;;;;;;;;;;;4974934;28;19914;-80
2022/11/19 17:02:13;;;;;;;;;;;;;;;;;;4975158;28;20369;-80
2022/11/19 17:04:38;;;;;;;;;;;;;;;;;;4975014;28;19914;-80
2022/11/19 17:07:04;;;;;;;;;;;;;;;;;;4975121;28;19914;-79
2022/11/19 17:09:32;;;;;;;;;;;;;;;;;;4974949;28;20334;-80
2022/11/19 17:14:46;;;;;;;;;;;;;;;;;;4975190;28;19925;-80
2022/11/19 17:17:29;;;;;;;;;;;;;;;;;;4974782;28;19920;-80
2022/11/19 17:19:56;;;;;;;;;;;;;;;;;;4974740;28;20313;-80
2022/11/19 17:22:25;;;;;;;;;;;;;;;;;;4974955;28;20337;-81
2022/11/19 17:24:50;;;;;;;;;;;;;;;;;;4975105;28;19957;-80
2022/11/19 17:27:35;;;;;;;;;;;;;;;;;;4974705;28;20288;-80
2022/11/19 17:30:03;;;;;;;;;;;;;;;;;;4974963;28;20383;-80
2022/11/19 17:32:40;;;;;;;;;;;;;;;;;;4974958;28;20008;-81
2022/11/19 17:35:08;;;;;;;;;;;;;;;;;;4974686;28;20352;-80
2022/11/19 17:37:34;;;;;;;;;;;;;;;;;;4974646;28;19921;-80
2022/11/19 17:39:59;;;;;;;;;;;;;;;;;;4974910;28;20300;-80
2022/11/19 17:45:08;;;;;;;;;;;;;;;;;;4975131;28;19921;-80
2022/11/19 17:47:33;;;;;;;;;;;;;;;;;;4974770;28;19914;-80
2022/11/19 17:49:59;;;;;;;;;;;;;;;;;;4974508;28;19914;-80
2022/11/19 17:52:24;;;;;;;;;;;;;;;;;;4974625;28;19937;-79
2022/11/19 17:54:50;;;;;;;;;;;;;;;;;;4974720;28;19914;-80
2022/11/19 17:57:15;;;;;;;;;;;;;;;;;;4975239;28;20289;-79
2022/11/19 17:59:40;;;;;;;;;;;;;;;;;;4977938;28;19922;-79
2022/11/19 18:02:13;;;;;;;;;;;;;;;;;;4978272;28;20372;-80
2022/11/19 18:04:39;;;;;;;;;;;;;;;;;;4977728;28;20004;-80
2022/11/19 18:07:05;;;;;;;;;;;;;;;;;;4978224;28;20015;-79
2022/11/19 18:09:30;;;;;;;;;;;;;;;;;;4977964;28;20040;-79
2022/11/19 18:11:55;;;;;;;;;;;;;;;;;;4960402;28;19957;-79
2022/11/19 18:14:20;;;;;;;;;;;;;;;;;;4977972;28;19918;-80
2022/11/19 18:16:46;;;;;;;;;;;;;;;;;;4977751;28;19917;-79
2022/11/19 18:19:12;;;;;;;;;;;;;;;;;;4977698;28;20332;-80
2022/11/19 18:21:39;;;;;;;;;;;;;;;;;;4977664;28;19910;-79
2022/11/19 18:24:04;;;;;;;;;;;;;;;;;;4977663;28;19965;-80
2022/11/19 18:26:29;;;;;;;;;;;;;;;;;;4960383;28;20325;-79
2022/11/19 18:28:56;;;;;;;;;;;;;;;;;;4977623;28;19918;-80
2022/11/19 18:31:23;;;;;;;;;;;;;;;;;;4977391;28;19952;-80
2022/11/19 18:33:48;;;;;;;;;;;;;;;;;;4977755;28;19914;-79
2022/11/19 18:36:14;;;;;;;;;;;;;;;;;;4977351;28;19914;-80
2022/11/19 18:38:40;;;;;;;;;;;;;;;;;;4977378;28;20005;-79
2022/11/19 18:41:05;;;;;;;;;;;;;;;;;;4977679;28;19921;-79
2022/11/19 18:46:14;;;;;;;;;;;;;;;;;;4977728;28;19977;-79
2022/11/19 18:48:40;;;;;;;;;;;;;;;;;;4977137;28;19914;-80
2022/11/19 18:51:06;;;;;;;;;;;;;;;;;;4977205;28;19961;-79
2022/11/19 18:53:31;;;;;;;;;;;;;;;;;;4959697;28;19969;-80
2022/11/19 18:55:56;;;;;;;;;;;;;;;;;;4977196;28;19914;-79
2022/11/19 18:58:21;;;;;;;;;;;;;;;;;;4977226;28;20389;-80
2022/11/19 19:00:47;;;;;;;;;;;;;;;;;;4977055;28;20035;-79
2022/11/19 19:03:13;;;;;;;;;;;;;;;;;;4976928;28;19914;-80
2022/11/19 19:05:39;;;;;;;;;;;;;;;;;;4977341;28;19949;-81
2022/11/19 19:08:04;;;;;;;;;;;;;;;;;;4976916;28;19969;-82
2022/11/19 19:10:33;;;;;;;;;;;;;;;;;;4976956;28;19964;-79
2022/11/19 19:12:58;;;;;;;;;;;;;;;;;;4976907;28;20262;-78
2022/11/19 19:15:24;;;;;;;;;;;;;;;;;;4976728;28;19922;-78
2022/11/19 19:17:49;;;;;;;;;;;;;;;;;;4977399;28;19921;-79
2022/11/19 19:20:14;;;;;;;;;;;;;;;;;;4976880;28;19975;-79
2022/11/19 19:22:39;;;;;;;;;;;;;;;;;;4976845;28;19969;-79
2022/11/19 19:25:05;;;;;;;;;;;;;;;;;;4976690;28;19921;-79
2022/11/19 19:27:30;;;;;;;;;;;;;;;;;;4959192;28;19965;-79
2022/11/19 19:29:56;;;;;;;;;;;;;;;;;;4959097;28;20017;-78
2022/11/19 19:32:21;;;;;;;;;;;;;;;;;;4976634;28;19925;-82
2022/11/19 19:34:47;;;;;;;;;;;;;;;;;;4976769;28;20376;-89
2022/11/19 19:37:12;;;;;;;;;;;;;;;;;;4977142;28;19914;-83
2022/11/19 19:39:37;;;;;;;;;;;;;;;;;;4976908;28;19937;-78
2022/11/19 19:42:03;;;;;;;;;;;;;;;;;;4976281;28;19920;-78
2022/11/19 19:44:28;;;;;;;;;;;;;;;;;;4976343;28;19917;-77
2022/11/19 19:46:53;;;;;;;;;;;;;;;;;;4976463;28;20369;-78
2022/11/19 19:49:19;;;;;;;;;;;;;;;;;;4976052;28;19945;-79
2022/11/19 19:51:44;;;;;;;;;;;;;;;;;;4958600;28;20404;-78
2022/11/19 19:54:10;;;;;;;;;;;;;;;;;;4977404;28;19910;-78
2022/11/19 19:56:35;;;;;;;;;;;;;;;;;;4976196;28;19918;-78
2022/11/19 19:59:00;;;;;;;;;;;;;;;;;;4976174;28;20020;-79
2022/11/19 20:01:32;;;;;;;;;;;;;;;;;;4975893;28;19956;-79
2022/11/19 20:04:02;;;;;;;;;;;;;;;;;;4977768;28;19921;-78
2022/11/19 20:06:28;;;;;;;;;;;;;;;;;;4958772;28;19914;-78
2022/11/19 20:08:53;;;;;;;;;;;;;;;;;;4975626;28;19969;-78
2022/11/19 20:11:20;;;;;;;;;;;;;;;;;;4975632;28;19918;-78
2022/11/19 20:13:45;;;;;;;;;;;;;;;;;;4975585;28;19914;-78
2022/11/19 20:16:12;;;;;;;;;;;;;;;;;;4975634;28;19929;-79
2022/11/19 20:18:38;;;;;;;;;;;;;;;;;;4975697;28;20369;-79
2022/11/19 20:21:04;;;;;;;;;;;;;;;;;;4975302;28;20344;-78
2022/11/19 20:23:30;;;;;;;;;;;;;;;;;;4975552;28;19921;-79
2022/11/19 20:25:56;;;;;;;;;;;;;;;;;;4975410;28;19914;-79
2022/11/19 20:28:22;;;;;;;;;;;;;;;;;;4975517;28;19918;-78
2022/11/19 20:30:47;;;;;;;;;;;;;;;;;;4975765;28;19990;-78
2022/11/19 20:33:12;;;;;;;;;;;;;;;;;;4975416;28;20268;-78
2022/11/19 20:35:39;;;;;;;;;;;;;;;;;;4975246;28;20369;-78
2022/11/19 20:38:04;;;;;;;;;;;;;;;;;;4975523;28;19914;-78
2022/11/19 20:40:30;;;;;;;;;;;;;;;;;;4975341;28;19921;-78
2022/11/19 20:45:39;;;;;;;;;;;;;;;;;;4975095;28;19969;-79
2022/11/19 20:48:04;;;;;;;;;;;;;;;;;;4975289;28;19918;-78
2022/11/19 20:50:29;;;;;;;;;;;;;;;;;;4975380;28;19921;-78
2022/11/19 20:52:54;;;;;;;;;;;;;;;;;;4975262;28;19914;-79
2022/11/19 20:55:20;;;;;;;;;;;;;;;;;;4975077;28;20072;-78
2022/11/19 20:57:45;;;;;;;;;;;;;;;;;;4975274;28;19921;-78
2022/11/19 21:00:11;;;;;;;;;;;;;;;;;;4975232;28;19918;-79
2022/11/19 21:02:36;;;;;;;;;;;;;;;;;;4974917;28;20000;-79
2022/11/19 21:05:02;;;;;;;;;;;;;;;;;;4974967;28;19991;-80
2022/11/19 21:07:27;;;;;;;;;;;;;;;;;;4975240;28;20352;-80
2022/11/19 21:09:52;;;;;;;;;;;;;;;;;;4975016;28;19937;-80
2022/11/19 21:12:18;;;;;;;;;;;;;;;;;;4973522;28;19914;-81
2022/11/19 21:14:43;;;;;;;;;;;;;;;;;;4975315;28;19914;-81
2022/11/19 21:17:08;;;;;;;;;;;;;;;;;;4975029;28;19979;-80
2022/11/19 21:19:34;;;;;;;;;;;;;;;;;;4975059;28;19968;-80
2022/11/19 21:21:59;;;;;;;;;;;;;;;;;;4975000;28;19914;-80
2022/11/19 21:24:24;;;;;;;;;;;;;;;;;;4957462;28;19914;-80
2022/11/19 21:26:50;;;;;;;;;;;;;;;;;;4957437;28;19921;-80
2022/11/19 21:29:15;;;;;;;;;;;;;;;;;;4974974;28;19921;-80
2022/11/19 21:31:42;;;;;;;;;;;;;;;;;;4974637;28;19929;-79
2022/11/19 21:34:12;;;;;;;;;;;;;;;;;;4978011;28;19922;-80
2022/11/19 21:36:37;;;;;;;;;;;;;;;;;;4978640;28;19941;-79
2022/11/19 21:39:03;;;;;;;;;;;;;;;;;;4978257;28;19969;-80
2022/11/19 21:41:28;;;;;;;;;;;;;;;;;;4961163;28;20361;-77
2022/11/19 21:43:54;;;;;;;;;;;;;;;;;;4978299;28;19914;-80
2022/11/19 21:46:19;;;;;;;;;;;;;;;;;;4978516;28;20005;-79
2022/11/19 21:48:44;;;;;;;;;;;;;;;;;;4978044;28;19914;-79
2022/11/19 21:51:10;;;;;;;;;;;;;;;;;;4978289;28;19914;-79
2022/11/19 21:53:35;;;;;;;;;;;;;;;;;;4961024;28;19914;-80
2022/11/19 21:56:01;;;;;;;;;;;;;;;;;;4977948;28;19965;-80
2022/11/19 21:58:26;;;;;;;;;;;;;;;;;;4977870;28;19914;-80
2022/11/19 22:00:58;;;;;;;;;;;;;;;;;;4978259;28;19969;-80
2022/11/19 22:03:24;;;;;;;;;;;;;;;;;;4977857;28;19921;-80
2022/11/19 22:06:03;;;;;;;;;;;;;;;;;;4978107;28;19914;-80
2022/11/19 22:08:29;;;;;;;;;;;;;;;;;;4977916;28;19953;-80
2022/11/19 22:10:55;;;;;;;;;;;;;;;;;;4977916;28;19949;-80
2022/11/19 22:13:20;;;;;;;;;;;;;;;;;;4977838;28;19972;-81
2022/11/19 22:15:45;;;;;;;;;;;;;;;;;;4977752;28;20357;-80
2022/11/19 22:18:11;;;;;;;;;;;;;;;;;;4977700;28;19973;-80
2022/11/19 22:20:36;;;;;;;;;;;;;;;;;;4977645;28;19921;-81
2022/11/19 22:23:01;;;;;;;;;;;;;;;;;;4977794;28;19918;-80
2022/11/19 22:25:27;;;;;;;;;;;;;;;;;;4977483;28;20013;-79
2022/11/19 22:27:52;;;;;;;;;;;;;;;;;;4977781;28;19913;-79
2022/11/19 22:30:17;;;;;;;;;;;;;;;;;;4977636;28;19914;-86
